Weather reports worldwide

Advertisment
Sutton bonington, United Kingdom (99025): temperature & dewpoint: 04.12.2018 10:00:00 - 10.12.2018 10:00:00 (GMT)Sutton bonington, United Kingdom (99025): temperature -20cm & temperature -100cm: 04.12.2018 10:00:00 - 10.12.2018 10:00:00 (GMT)Sutton bonington, United Kingdom (99025): wind speed & gusts: 04.12.2018 10:00:00 - 10.12.2018 10:00:00 (GMT)Sutton bonington, United Kingdom (99025): wind direction: 04.12.2018 10:00:00 - 10.12.2018 10:00:00 (GMT)Sutton bonington, United Kingdom (99025): precipitation: 04.12.2018 10:00:00 - 10.12.2018 10:00:00 (GMT)
Date & Time tt [°C] td [°C] tt -20cm [°C] tt -100cm [°C] ff [km/h] ff [kn] fx [km/h] fx [kn] dd rr [mm]
10.12.2018 10:00:00 - - - - - - - - - -
10.12.2018 09:00:00 6,6 5,3 8,0 9,2 9 5 - - W 0,0
10.12.2018 08:00:00 6,1 4,8 - - 8 4 - - W 0,0
10.12.2018 07:00:00 6,8 5,2 - - 13 7 - - W 0,0
10.12.2018 06:00:00 6,2 4,6 - - 11 6 - - W 0,0
10.12.2018 05:00:00 6,6 5,0 - - 9 5 - - WSW 0,0
10.12.2018 04:00:00 6,1 5,0 - - 8 4 - - WSW 0,0
10.12.2018 03:00:00 5,4 4,4 - - 9 5 - - WSW 0,0
10.12.2018 02:00:00 5,8 4,8 - - 13 7 - - W 0,0
10.12.2018 01:00:00 5,6 4,4 - - 9 5 - - W 0,0
10.12.2018 00:00:00 5,9 4,4 - - 11 6 - - W 0,0
09.12.2018 23:00:00 6,1 4,2 - - 11 6 - - W 0,0
09.12.2018 22:00:00 5,2 4,0 - - 4 2 - - W 0,0
09.12.2018 21:00:00 5,8 3,9 - - 4 2 - - SSW 0,0
09.12.2018 20:00:00 5,9 3,1 - - 8 4 - - WSW 0,0
09.12.2018 19:00:00 6,2 3,2 - - 9 5 - - WNW 0,0
09.12.2018 18:00:00 7,0 3,7 - - 9 5 - - W 0,0
09.12.2018 17:00:00 7,4 2,9 - - 11 6 - - WNW 0,0
09.12.2018 16:00:00 8,3 2,5 - - 26 14 - - WNW 0,0
09.12.2018 15:00:00 8,4 3,1 - - 24 13 - - WNW 0,0
09.12.2018 14:00:00 8,8 4,0 - - 26 14 - - WNW 0,0
09.12.2018 13:00:00 9,0 5,1 - - 18 10 - - WNW 0,0
09.12.2018 12:00:00 9,0 5,5 - - 16 9 - - WNW 0,0
09.12.2018 11:00:00 8,7 5,3 - - 21 11 - - WNW 0,0
09.12.2018 10:00:00 7,8 5,1 - - 13 7 - - WNW 0,0
09.12.2018 09:00:00 8,1 6,3 8,5 9,2 15 8 - - NW 0,0
09.12.2018 08:00:00 8,0 6,8 - - 16 9 - - W 0,2
09.12.2018 07:00:00 7,8 6,5 - - 15 8 - - W 0,2
09.12.2018 06:00:00 8,0 6,2 - - 22 12 - - W 0,6
09.12.2018 05:00:00 8,3 6,1 - - 24 13 - - W 0,0
09.12.2018 04:00:00 8,2 5,7 - - 22 12 - - WSW 0,0
09.12.2018 03:00:00 8,5 5,2 - - 26 14 48 26 W 0,0
09.12.2018 02:00:00 8,5 4,9 - - 22 12 - - W 0,0
09.12.2018 01:00:00 8,6 5,1 - - 26 14 52 28 W 0,0
09.12.2018 00:00:00 8,1 5,7 - - 22 12 - - WSW 0,0
08.12.2018 23:00:00 8,0 6,0 - - 24 13 48 26 W 1,0
08.12.2018 22:00:00 8,6 5,3 - - 26 14 46 25 WSW 0,0
08.12.2018 21:00:00 8,7 4,9 - - 21 11 - - WSW 0,0
08.12.2018 20:00:00 8,8 4,7 - - 22 12 46 25 W 0,0
08.12.2018 19:00:00 9,1 4,6 - - 24 13 55 30 W 0,0
08.12.2018 18:00:00 9,6 5,6 - - 31 17 54 29 W 0,0
08.12.2018 17:00:00 9,8 7,1 - - 26 14 54 29 W 0,6
08.12.2018 16:00:00 10,1 8,5 - - 21 11 - - W 1,0
08.12.2018 15:00:00 10,9 7,8 - - 24 13 48 26 WSW 0,0
08.12.2018 14:00:00 10,2 7,0 - - 22 12 - - SW 0,0
08.12.2018 13:00:00 10,9 5,7 - - 18 10 - - WSW 0,0
08.12.2018 12:00:00 10,4 5,0 - - 15 8 50 27 WSW 0,0
08.12.2018 11:00:00 9,8 4,3 - - 24 13 50 27 W 0,0
08.12.2018 10:00:00 9,1 4,1 - - 28 15 54 29 W 0,0
08.12.2018 09:00:00 8,7 4,5 8,7 9,4 24 13 48 26 W 0,0
08.12.2018 08:00:00 8,8 4,8 - - 24 13 48 26 W 0,0
08.12.2018 07:00:00 8,9 5,0 - - 26 14 55 30 W 0,0
08.12.2018 06:00:00 8,9 5,1 - - 28 15 61 33 W 0,0
08.12.2018 05:00:00 9,1 4,9 - - 31 17 65 35 W 0,0
08.12.2018 04:00:00 9,1 4,8 - - 34 18 59 32 WSW 0,2
08.12.2018 03:00:00 8,3 5,2 - - 28 15 50 27 WSW 0,2
08.12.2018 02:00:00 8,0 4,8 - - 21 11 - - SW 0,0
08.12.2018 01:00:00 7,5 4,4 - - 21 11 - - SW 0,0
08.12.2018 00:00:00 7,6 3,7 - - 18 10 - - SW 0,0
07.12.2018 23:00:00 6,6 3,4 - - 21 11 46 25 SW 0,0
07.12.2018 22:00:00 6,3 3,0 - - 15 8 - - SSW 0,0
07.12.2018 21:00:00 6,1 2,3 - - 18 10 - - SW 0,0
07.12.2018 20:00:00 5,8 1,8 - - 18 10 - - SW 0,0
07.12.2018 19:00:00 5,8 1,8 - - 21 11 - - WSW 0,0
07.12.2018 18:00:00 5,9 1,9 - - 18 10 52 28 SW 0,0
07.12.2018 17:00:00 7,0 1,3 - - 18 10 - - WSW 0,0
07.12.2018 16:00:00 7,5 1,1 - - 24 13 46 25 W 0,0
07.12.2018 15:00:00 8,2 1,3 - - 24 13 - - W 0,0
07.12.2018 14:00:00 8,3 2,7 - - 24 13 50 27 W 0,0
07.12.2018 13:00:00 9,1 2,1 - - 28 15 50 27 W 0,0
07.12.2018 12:00:00 9,4 3,5 - - 26 14 - - W 0,0
07.12.2018 11:00:00 9,4 5,5 - - 22 12 - - W 0,0
07.12.2018 10:00:00 9,3 5,8 - - 21 11 - - W 0,4
07.12.2018 09:00:00 9,6 8,6 9,2 9,2 37 20 57 31 WNW 4,0
07.12.2018 08:00:00 12,6 10,9 - - 18 10 - - SSW 0,2
07.12.2018 07:00:00 12,6 11,3 - - 16 9 - - SSW 0,6
07.12.2018 06:00:00 12,7 11,5 - - 21 11 - - SSW 1,0
07.12.2018 05:00:00 12,9 11,6 - - 18 10 - - SSW 1,2
07.12.2018 04:00:00 12,9 11,7 - - 21 11 - - SSW 0,8
07.12.2018 03:00:00 12,8 11,6 - - 22 12 50 27 SSW 0,4
07.12.2018 02:00:00 13,0 11,3 - - 18 10 - - SSW 0,0
07.12.2018 01:00:00 12,9 11,0 - - 16 9 - - S 0,0
07.12.2018 00:00:00 12,7 10,9 - - 11 6 - - S 0,0
06.12.2018 23:00:00 12,5 10,8 - - 11 6 - - SSW 0,0
06.12.2018 22:00:00 12,7 10,9 - - 13 7 - - SW 0,0
06.12.2018 21:00:00 12,9 10,9 - - 18 10 - - SW 0,0
06.12.2018 20:00:00 12,6 10,8 - - 13 7 - - SW 0,0
06.12.2018 19:00:00 12,6 10,7 - - 13 7 - - SW 0,0
06.12.2018 18:00:00 12,3 10,4 - - 13 7 - - SW 0,0
06.12.2018 17:00:00 12,2 10,2 - - 13 7 - - SSW 0,0
06.12.2018 16:00:00 12,2 10,0 - - 15 8 - - SSW 0,0
06.12.2018 15:00:00 11,9 9,3 - - 15 8 - - SSW 0,0
06.12.2018 14:00:00 12,5 9,2 - - 15 8 - - SSW 0,2
06.12.2018 13:00:00 12,5 9,9 - - 21 11 - - SW 0,0
06.12.2018 12:00:00 11,9 10,0 - - 16 9 - - SW 0,0
06.12.2018 11:00:00 11,5 10,1 - - 18 10 - - SW 0,0
06.12.2018 10:00:00 11,3 9,6 - - 15 8 - - SSW 0,0
06.12.2018 09:00:00 10,5 9,0 8,5 9,0 13 7 - - SW 0,0
06.12.2018 08:00:00 10,7 8,8 - - 11 6 - - SSW 0,0
06.12.2018 07:00:00 10,8 8,9 - - 9 5 - - SSW 0,0
06.12.2018 06:00:00 10,9 9,3 - - 11 6 - - SSW 0,0
06.12.2018 05:00:00 10,8 9,5 - - 11 6 - - SW 0,0
06.12.2018 04:00:00 10,8 9,5 - - 9 5 - - SW 0,0
06.12.2018 03:00:00 11,2 9,7 - - 8 4 - - WSW 0,0
06.12.2018 02:00:00 11,3 10,0 - - 11 6 - - W 0,0
06.12.2018 01:00:00 11,4 10,1 - - 11 6 - - W 0,0
06.12.2018 00:00:00 11,4 10,3 - - 9 5 - - WSW 0,0
05.12.2018 23:00:00 11,4 10,5 - - 9 5 - - W 0,0
05.12.2018 22:00:00 11,7 10,6 - - 9 5 - - WSW 0,0
05.12.2018 21:00:00 11,5 10,5 - - 8 4 - - WSW 0,0
05.12.2018 20:00:00 11,7 10,7 - - 9 5 - - SSW 0,0
05.12.2018 19:00:00 11,4 10,7 - - 5 3 - - SSW 0,0
05.12.2018 18:00:00 11,5 10,8 - - 5 3 - - SSW 0,0
05.12.2018 17:00:00 11,7 10,8 - - 9 5 - - SSW 0,2
05.12.2018 16:00:00 11,8 10,8 - - 11 6 - - S 0,2
05.12.2018 15:00:00 11,1 10,5 - - 15 8 - - SSE 0,0
05.12.2018 14:00:00 10,2 9,9 - - 15 8 - - SSE 0,4
05.12.2018 13:00:00 9,3 8,9 - - 13 7 - - SSE 0,2
05.12.2018 12:00:00 8,4 8,0 - - 11 6 - - SSE 0,0
05.12.2018 11:00:00 7,5 7,1 - - 11 6 - - SSE 0,0
05.12.2018 10:00:00 6,8 6,4 - - 11 6 - - SSE 0,0
05.12.2018 09:00:00 6,0 5,7 7,7 9,2 11 6 - - SSE 0,0
05.12.2018 08:00:00 5,7 5,2 - - 16 9 - - SE 0,2
05.12.2018 07:00:00 5,4 4,9 - - 15 8 - - ESE 0,2
05.12.2018 06:00:00 5,1 4,5 - - 13 7 - - ESE 1,0
05.12.2018 05:00:00 4,8 4,2 - - 15 8 - - ESE 1,0
05.12.2018 04:00:00 4,6 3,7 - - 11 6 - - ESE 0,4
05.12.2018 03:00:00 4,3 3,5 - - 9 5 - - ESE 0,2
05.12.2018 02:00:00 4,3 3,5 - - 8 4 - - ESE 0,2
05.12.2018 01:00:00 4,4 3,4 - - 8 4 - - SE 0,2
05.12.2018 00:00:00 5,0 3,3 - - 8 4 - - S 0,0
04.12.2018 23:00:00 5,1 3,3 - - 5 3 - - SSW 0,0
04.12.2018 22:00:00 4,9 3,6 - - 5 3 - - SSW 0,0
04.12.2018 21:00:00 4,5 3,4 - - 9 5 - - SSE 0,0
04.12.2018 20:00:00 4,4 3,5 - - 9 5 - - SSE 0,0
04.12.2018 19:00:00 4,1 3,2 - - 5 3 - - SE 0,0
04.12.2018 18:00:00 4,5 3,7 - - 8 4 - - SSE 0,0
04.12.2018 17:00:00 3,8 3,2 - - 5 3 - - SSE 0,0
04.12.2018 16:00:00 4,1 3,4 - - 5 3 - - SE 0,0
04.12.2018 15:00:00 4,6 3,7 - - 4 2 - - SE 0,0
04.12.2018 14:00:00 4,8 3,6 - - 2 1 - - ENE 0,0
04.12.2018 13:00:00 4,6 3,4 - - 2 1 - - NNW 0,0
04.12.2018 12:00:00 4,4 3,1 - - 2 1 - - NNW 0,0
04.12.2018 11:00:00 4,6 2,6 - - 4 2 - - SW 0,2
04.12.2018 10:00:00 3,7 2,9 - - 4 2 - - S 0,0

tt = temperature
td = dewpoint
tt -20cm = temperature -20cm
tt -100cm = temperature -100cm
ff = wind speed
fx = gusts
dd = wind direction
rr = precipitation

Next stations